sensor_id;sensor_type;location;lat;lon;timestamp;P1;durP1;ratioP1;P2;durP2;ratioP2
6029;SDS011;3043;42.682;23.376;2023-04-03T00:01:27;12.33;;;8.27;;
6029;SDS011;3043;42.682;23.376;2023-04-03T00:03:53;13.70;;;8.70;;
6029;SDS011;3043;42.682;23.376;2023-04-03T00:06:19;14.90;;;8.40;;
6029;SDS011;3043;42.682;23.376;2023-04-03T00:08:45;10.60;;;5.53;;
6029;SDS011;3043;42.682;23.376;2023-04-03T00:11:10;12.53;;;5.90;;
6029;SDS011;3043;42.682;23.376;2023-04-03T00:13:36;12.70;;;6.37;;
6029;SDS011;3043;42.682;23.376;2023-04-03T00:16:03;14.33;;;8.47;;
6029;SDS011;3043;42.682;23.376;2023-04-03T00:18:29;15.80;;;8.97;;
6029;SDS011;3043;42.682;23.376;2023-04-03T00:20:54;10.63;;;5.60;;
6029;SDS011;3043;42.682;23.376;2023-04-03T00:23:20;7.43;;;4.33;;
6029;SDS011;3043;42.682;23.376;2023-04-03T00:25:45;12.33;;;6.87;;
6029;SDS011;3043;42.682;23.376;2023-04-03T00:28:11;14.43;;;7.80;;
6029;SDS011;3043;42.682;23.376;2023-04-03T00:30:37;13.03;;;7.37;;
6029;SDS011;3043;42.682;23.376;2023-04-03T00:33:02;16.23;;;8.90;;
6029;SDS011;3043;42.682;23.376;2023-04-03T00:35:28;23.87;;;11.50;;
6029;SDS011;3043;42.682;23.376;2023-04-03T00:37:54;12.43;;;7.60;;
6029;SDS011;3043;42.682;23.376;2023-04-03T00:40:20;10.43;;;6.20;;
6029;SDS011;3043;42.682;23.376;2023-04-03T00:42:57;10.47;;;6.20;;
6029;SDS011;3043;42.682;23.376;2023-04-03T00:45:25;8.53;;;4.07;;
6029;SDS011;3043;42.682;23.376;2023-04-03T00:47:54;10.77;;;5.60;;
6029;SDS011;3043;42.682;23.376;2023-04-03T00:50:20;9.83;;;5.50;;
6029;SDS011;3043;42.682;23.376;2023-04-03T00:52:46;10.63;;;6.10;;
6029;SDS011;3043;42.682;23.376;2023-04-03T00:55:14;10.93;;;6.13;;
6029;SDS011;3043;42.682;23.376;2023-04-03T00:57:40;13.60;;;6.93;;
6029;SDS011;3043;42.682;23.376;2023-04-03T01:00:08;11.97;;;5.60;;
6029;SDS011;3043;42.682;23.376;2023-04-03T01:02:35;12.40;;;7.60;;
6029;SDS011;3043;42.682;23.376;2023-04-03T01:05:01;16.27;;;8.30;;
6029;SDS011;3043;42.682;23.376;2023-04-03T01:07:29;15.17;;;9.27;;
6029;SDS011;3043;42.682;23.376;2023-04-03T01:09:59;15.60;;;8.57;;
6029;SDS011;3043;42.682;23.376;2023-04-03T01:12:30;16.37;;;9.30;;
6029;SDS011;3043;42.682;23.376;2023-04-03T01:15:05;25.33;;;14.67;;
6029;SDS011;3043;42.682;23.376;2023-04-03T01:22:52;21.93;;;13.90;;
6029;SDS011;3043;42.682;23.376;2023-04-03T01:25:25;25.63;;;17.47;;
6029;SDS011;3043;42.682;23.376;2023-04-03T01:27:51;30.23;;;19.80;;
6029;SDS011;3043;42.682;23.376;2023-04-03T01:30:17;22.83;;;15.37;;
6029;SDS011;3043;42.682;23.376;2023-04-03T01:32:45;22.07;;;14.57;;
6029;SDS011;3043;42.682;23.376;2023-04-03T01:35:10;26.17;;;15.93;;
6029;SDS011;3043;42.682;23.376;2023-04-03T01:37:36;24.83;;;15.20;;
6029;SDS011;3043;42.682;23.376;2023-04-03T01:40:02;24.93;;;16.27;;
6029;SDS011;3043;42.682;23.376;2023-04-03T01:42:28;31.83;;;18.50;;
6029;SDS011;3043;42.682;23.376;2023-04-03T01:44:54;28.83;;;19.87;;
6029;SDS011;3043;42.682;23.376;2023-04-03T01:47:20;28.23;;;18.80;;
6029;SDS011;3043;42.682;23.376;2023-04-03T01:49:46;32.17;;;20.20;;
6029;SDS011;3043;42.682;23.376;2023-04-03T01:52:11;38.33;;;25.90;;
6029;SDS011;3043;42.682;23.376;2023-04-03T01:54:37;46.23;;;27.13;;
6029;SDS011;3043;42.682;23.376;2023-04-03T01:57:03;37.93;;;23.20;;
6029;SDS011;3043;42.682;23.376;2023-04-03T01:59:28;30.40;;;17.20;;
6029;SDS011;3043;42.682;23.376;2023-04-03T02:01:53;27.50;;;16.13;;
6029;SDS011;3043;42.682;23.376;2023-04-03T02:04:19;28.83;;;16.00;;
6029;SDS011;3043;42.682;23.376;2023-04-03T02:06:45;29.03;;;16.23;;
6029;SDS011;3043;42.682;23.376;2023-04-03T02:09:10;24.50;;;14.27;;
6029;SDS011;3043;42.682;23.376;2023-04-03T02:11:35;19.37;;;11.87;;
6029;SDS011;3043;42.682;23.376;2023-04-03T02:14:01;17.13;;;10.83;;
6029;SDS011;3043;42.682;23.376;2023-04-03T02:16:27;22.10;;;12.27;;
6029;SDS011;3043;42.682;23.376;2023-04-03T02:18:53;18.17;;;10.83;;
6029;SDS011;3043;42.682;23.376;2023-04-03T02:21:19;16.70;;;10.90;;
6029;SDS011;3043;42.682;23.376;2023-04-03T02:23:44;19.90;;;12.70;;
6029;SDS011;3043;42.682;23.376;2023-04-03T02:26:11;23.53;;;12.83;;
6029;SDS011;3043;42.682;23.376;2023-04-03T02:28:38;28.00;;;13.80;;
6029;SDS011;3043;42.682;23.376;2023-04-03T02:31:05;20.83;;;12.70;;
6029;SDS011;3043;42.682;23.376;2023-04-03T02:33:32;19.27;;;12.23;;
6029;SDS011;3043;42.682;23.376;2023-04-03T02:35:58;20.33;;;12.87;;
6029;SDS011;3043;42.682;23.376;2023-04-03T02:38:25;21.43;;;12.23;;
6029;SDS011;3043;42.682;23.376;2023-04-03T02:40:50;17.03;;;9.97;;
6029;SDS011;3043;42.682;23.376;2023-04-03T02:43:16;19.80;;;11.93;;
6029;SDS011;3043;42.682;23.376;2023-04-03T02:45:42;23.03;;;13.27;;
6029;SDS011;3043;42.682;23.376;2023-04-03T02:48:08;15.70;;;9.67;;
6029;SDS011;3043;42.682;23.376;2023-04-03T02:50:34;12.73;;;8.13;;
6029;SDS011;3043;42.682;23.376;2023-04-03T02:52:59;13.83;;;8.30;;
6029;SDS011;3043;42.682;23.376;2023-04-03T02:55:24;12.50;;;6.00;;
6029;SDS011;3043;42.682;23.376;2023-04-03T02:57:50;9.40;;;5.00;;
6029;SDS011;3043;42.682;23.376;2023-04-03T03:00:15;6.83;;;3.47;;
6029;SDS011;3043;42.682;23.376;2023-04-03T03:02:41;8.93;;;4.60;;
6029;SDS011;3043;42.682;23.376;2023-04-03T03:05:07;13.93;;;7.30;;
6029;SDS011;3043;42.682;23.376;2023-04-03T03:07:33;11.77;;;6.40;;
6029;SDS011;3043;42.682;23.376;2023-04-03T03:09:59;11.87;;;6.47;;
6029;SDS011;3043;42.682;23.376;2023-04-03T03:12:24;15.07;;;7.20;;
6029;SDS011;3043;42.682;23.376;2023-04-03T03:14:50;9.57;;;5.40;;
6029;SDS011;3043;42.682;23.376;2023-04-03T03:17:16;8.77;;;4.70;;
6029;SDS011;3043;42.682;23.376;2023-04-03T03:19:42;9.63;;;5.40;;
6029;SDS011;3043;42.682;23.376;2023-04-03T03:22:07;12.97;;;6.70;;
6029;SDS011;3043;42.682;23.376;2023-04-03T03:24:33;17.13;;;7.37;;
6029;SDS011;3043;42.682;23.376;2023-04-03T03:26:58;17.03;;;8.63;;
6029;SDS011;3043;42.682;23.376;2023-04-03T03:29:24;13.30;;;6.37;;
6029;SDS011;3043;42.682;23.376;2023-04-03T03:31:49;12.97;;;7.67;;
6029;SDS011;3043;42.682;23.376;2023-04-03T03:34:15;16.13;;;10.20;;
6029;SDS011;3043;42.682;23.376;2023-04-03T03:36:40;16.97;;;10.43;;
6029;SDS011;3043;42.682;23.376;2023-04-03T03:39:06;17.23;;;9.17;;
6029;SDS011;3043;42.682;23.376;2023-04-03T03:41:31;14.37;;;7.90;;
6029;SDS011;3043;42.682;23.376;2023-04-03T03:43:57;25.80;;;13.60;;
6029;SDS011;3043;42.682;23.376;2023-04-03T03:46:22;23.23;;;14.20;;
6029;SDS011;3043;42.682;23.376;2023-04-03T03:48:48;27.10;;;16.10;;
6029;SDS011;3043;42.682;23.376;2023-04-03T03:51:13;25.50;;;13.13;;
6029;SDS011;3043;42.682;23.376;2023-04-03T03:53:39;25.37;;;14.80;;
6029;SDS011;3043;42.682;23.376;2023-04-03T03:56:05;29.27;;;16.87;;
6029;SDS011;3043;42.682;23.376;2023-04-03T03:58:31;33.23;;;18.43;;
6029;SDS011;3043;42.682;23.376;2023-04-03T04:01:00;32.50;;;19.80;;
6029;SDS011;3043;42.682;23.376;2023-04-03T04:03:26;26.83;;;15.17;;
6029;SDS011;3043;42.682;23.376;2023-04-03T04:05:52;30.37;;;17.17;;
6029;SDS011;3043;42.682;23.376;2023-04-03T04:08:17;33.30;;;17.90;;
6029;SDS011;3043;42.682;23.376;2023-04-03T04:10:43;32.37;;;16.77;;
6029;SDS011;3043;42.682;23.376;2023-04-03T04:13:08;27.43;;;16.17;;
6029;SDS011;3043;42.682;23.376;2023-04-03T04:15:34;27.90;;;16.20;;
6029;SDS011;3043;42.682;23.376;2023-04-03T04:17:59;32.80;;;18.17;;
6029;SDS011;3043;42.682;23.376;2023-04-03T04:20:24;27.70;;;16.07;;
6029;SDS011;3043;42.682;23.376;2023-04-03T04:22:50;37.83;;;22.60;;
6029;SDS011;3043;42.682;23.376;2023-04-03T04:25:16;45.73;;;20.83;;
6029;SDS011;3043;42.682;23.376;2023-04-03T04:27:41;32.53;;;19.50;;
6029;SDS011;3043;42.682;23.376;2023-04-03T04:30:07;29.17;;;17.33;;
6029;SDS011;3043;42.682;23.376;2023-04-03T04:32:33;37.20;;;20.37;;
6029;SDS011;3043;42.682;23.376;2023-04-03T04:34:58;29.43;;;18.97;;
6029;SDS011;3043;42.682;23.376;2023-04-03T04:37:24;34.93;;;19.67;;
6029;SDS011;3043;42.682;23.376;2023-04-03T04:39:50;36.57;;;20.33;;
6029;SDS011;3043;42.682;23.376;2023-04-03T04:42:15;30.53;;;19.93;;
6029;SDS011;3043;42.682;23.376;2023-04-03T04:44:41;39.00;;;22.00;;
6029;SDS011;3043;42.682;23.376;2023-04-03T04:47:07;37.67;;;24.27;;
6029;SDS011;3043;42.682;23.376;2023-04-03T04:49:33;14.37;;;7.90;;
6029;SDS011;3043;42.682;23.376;2023-04-03T04:51:58;24.87;;;13.83;;
6029;SDS011;3043;42.682;23.376;2023-04-03T04:54:24;17.07;;;7.43;;
6029;SDS011;3043;42.682;23.376;2023-04-03T04:56:49;16.00;;;9.17;;
6029;SDS011;3043;42.682;23.376;2023-04-03T04:59:14;22.00;;;12.10;;
6029;SDS011;3043;42.682;23.376;2023-04-03T05:01:40;24.87;;;15.07;;
6029;SDS011;3043;42.682;23.376;2023-04-03T05:04:05;29.37;;;16.23;;
6029;SDS011;3043;42.682;23.376;2023-04-03T05:06:31;19.13;;;12.87;;
6029;SDS011;3043;42.682;23.376;2023-04-03T05:08:57;20.03;;;11.50;;
6029;SDS011;3043;42.682;23.376;2023-04-03T05:11:23;16.03;;;10.53;;
6029;SDS011;3043;42.682;23.376;2023-04-03T05:13:48;19.47;;;10.83;;
6029;SDS011;3043;42.682;23.376;2023-04-03T05:16:14;22.60;;;9.43;;
6029;SDS011;3043;42.682;23.376;2023-04-03T05:18:39;21.23;;;10.07;;
6029;SDS011;3043;42.682;23.376;2023-04-03T05:21:05;18.07;;;9.70;;
6029;SDS011;3043;42.682;23.376;2023-04-03T05:23:30;26.53;;;7.90;;
6029;SDS011;3043;42.682;23.376;2023-04-03T05:25:56;14.37;;;7.67;;
6029;SDS011;3043;42.682;23.376;2023-04-03T05:28:22;19.77;;;8.00;;
6029;SDS011;3043;42.682;23.376;2023-04-03T05:30:57;14.77;;;7.87;;
6029;SDS011;3043;42.682;23.376;2023-04-03T05:33:23;20.23;;;10.83;;
6029;SDS011;3043;42.682;23.376;2023-04-03T05:35:51;24.93;;;10.90;;
6029;SDS011;3043;42.682;23.376;2023-04-03T05:38:16;19.03;;;9.90;;
6029;SDS011;3043;42.682;23.376;2023-04-03T05:40:42;22.47;;;11.17;;
6029;SDS011;3043;42.682;23.376;2023-04-03T05:43:07;28.83;;;15.17;;
6029;SDS011;3043;42.682;23.376;2023-04-03T05:45:33;37.73;;;17.57;;
6029;SDS011;3043;42.682;23.376;2023-04-03T05:47:58;39.93;;;18.03;;
6029;SDS011;3043;42.682;23.376;2023-04-03T05:50:23;48.57;;;21.67;;
6029;SDS011;3043;42.682;23.376;2023-04-03T05:52:49;40.37;;;20.40;;
6029;SDS011;3043;42.682;23.376;2023-04-03T05:55:17;37.37;;;18.40;;
6029;SDS011;3043;42.682;23.376;2023-04-03T05:57:43;35.03;;;18.37;;
6029;SDS011;3043;42.682;23.376;2023-04-03T06:00:08;28.93;;;17.43;;
6029;SDS011;3043;42.682;23.376;2023-04-03T06:02:38;35.37;;;19.43;;
6029;SDS011;3043;42.682;23.376;2023-04-03T06:05:03;36.87;;;20.90;;
6029;SDS011;3043;42.682;23.376;2023-04-03T06:07:29;27.93;;;18.77;;
6029;SDS011;3043;42.682;23.376;2023-04-03T06:09:55;32.37;;;19.67;;
6029;SDS011;3043;42.682;23.376;2023-04-03T06:12:22;32.23;;;20.00;;
6029;SDS011;3043;42.682;23.376;2023-04-03T06:14:48;32.20;;;18.93;;
6029;SDS011;3043;42.682;23.376;2023-04-03T06:17:14;27.90;;;17.30;;
6029;SDS011;3043;42.682;23.376;2023-04-03T06:19:41;24.13;;;15.27;;
6029;SDS011;3043;42.682;23.376;2023-04-03T06:22:06;25.20;;;14.00;;
6029;SDS011;3043;42.682;23.376;2023-04-03T06:24:32;28.40;;;15.03;;
6029;SDS011;3043;42.682;23.376;2023-04-03T06:26:58;23.17;;;14.03;;
6029;SDS011;3043;42.682;23.376;2023-04-03T06:29:24;22.17;;;13.57;;
6029;SDS011;3043;42.682;23.376;2023-04-03T06:31:50;25.73;;;13.93;;
6029;SDS011;3043;42.682;23.376;2023-04-03T06:34:16;29.07;;;16.73;;
6029;SDS011;3043;42.682;23.376;2023-04-03T06:36:43;27.67;;;17.67;;
6029;SDS011;3043;42.682;23.376;2023-04-03T06:39:16;26.30;;;16.53;;
6029;SDS011;3043;42.682;23.376;2023-04-03T06:41:45;24.57;;;15.83;;
6029;SDS011;3043;42.682;23.376;2023-04-03T06:44:11;25.07;;;18.27;;
6029;SDS011;3043;42.682;23.376;2023-04-03T06:46:38;26.83;;;18.53;;
6029;SDS011;3043;42.682;23.376;2023-04-03T06:49:04;24.27;;;17.30;;
6029;SDS011;3043;42.682;23.376;2023-04-03T06:51:32;25.00;;;16.83;;
6029;SDS011;3043;42.682;23.376;2023-04-03T06:53:59;22.93;;;16.90;;
6029;SDS011;3043;42.682;23.376;2023-04-03T06:56:25;24.83;;;17.97;;
6029;SDS011;3043;42.682;23.376;2023-04-03T06:58:51;26.30;;;19.00;;
6029;SDS011;3043;42.682;23.376;2023-04-03T07:01:20;25.63;;;17.47;;
6029;SDS011;3043;42.682;23.376;2023-04-03T07:03:46;29.53;;;17.67;;
6029;SDS011;3043;42.682;23.376;2023-04-03T07:06:13;26.70;;;18.40;;
6029;SDS011;3043;42.682;23.376;2023-04-03T07:08:40;30.10;;;17.80;;
6029;SDS011;3043;42.682;23.376;2023-04-03T07:11:07;38.07;;;20.00;;
6029;SDS011;3043;42.682;23.376;2023-04-03T07:13:33;29.27;;;19.53;;
6029;SDS011;3043;42.682;23.376;2023-04-03T07:15:58;32.27;;;19.43;;
6029;SDS011;3043;42.682;23.376;2023-04-03T07:18:24;28.23;;;18.53;;
6029;SDS011;3043;42.682;23.376;2023-04-03T07:20:50;25.50;;;18.77;;
6029;SDS011;3043;42.682;23.376;2023-04-03T07:23:16;28.37;;;18.37;;
6029;SDS011;3043;42.682;23.376;2023-04-03T07:25:42;30.07;;;18.47;;
6029;SDS011;3043;42.682;23.376;2023-04-03T07:28:12;30.93;;;18.97;;
6029;SDS011;3043;42.682;23.376;2023-04-03T07:30:42;28.40;;;18.27;;
6029;SDS011;3043;42.682;23.376;2023-04-03T07:33:15;31.50;;;20.67;;
6029;SDS011;3043;42.682;23.376;2023-04-03T07:35:41;38.67;;;24.10;;
6029;SDS011;3043;42.682;23.376;2023-04-03T07:38:08;33.30;;;22.07;;
6029;SDS011;3043;42.682;23.376;2023-04-03T07:40:33;40.03;;;27.10;;
6029;SDS011;3043;42.682;23.376;2023-04-03T07:43:00;36.73;;;26.13;;
6029;SDS011;3043;42.682;23.376;2023-04-03T07:45:25;34.87;;;23.97;;
6029;SDS011;3043;42.682;23.376;2023-04-03T07:47:52;27.80;;;21.30;;
6029;SDS011;3043;42.682;23.376;2023-04-03T07:50:18;27.40;;;19.10;;
6029;SDS011;3043;42.682;23.376;2023-04-03T07:52:43;23.53;;;17.60;;
6029;SDS011;3043;42.682;23.376;2023-04-03T07:55:10;28.60;;;16.30;;
6029;SDS011;3043;42.682;23.376;2023-04-03T07:57:36;27.37;;;15.33;;
6029;SDS011;3043;42.682;23.376;2023-04-03T08:00:05;22.77;;;14.53;;
6029;SDS011;3043;42.682;23.376;2023-04-03T08:02:31;23.50;;;15.00;;
6029;SDS011;3043;42.682;23.376;2023-04-03T08:04:59;22.73;;;14.40;;
6029;SDS011;3043;42.682;23.376;2023-04-03T08:07:25;22.03;;;15.77;;
6029;SDS011;3043;42.682;23.376;2023-04-03T08:09:51;28.77;;;16.77;;
6029;SDS011;3043;42.682;23.376;2023-04-03T08:12:16;19.87;;;13.93;;
6029;SDS011;3043;42.682;23.376;2023-04-03T08:14:42;24.53;;;15.33;;
6029;SDS011;3043;42.682;23.376;2023-04-03T08:17:08;24.60;;;15.07;;
6029;SDS011;3043;42.682;23.376;2023-04-03T08:19:36;26.97;;;15.70;;
6029;SDS011;3043;42.682;23.376;2023-04-03T08:22:03;22.27;;;14.80;;
6029;SDS011;3043;42.682;23.376;2023-04-03T08:24:30;23.70;;;14.53;;
6029;SDS011;3043;42.682;23.376;2023-04-03T08:26:59;21.73;;;14.10;;
6029;SDS011;3043;42.682;23.376;2023-04-03T08:29:24;20.03;;;14.07;;
6029;SDS011;3043;42.682;23.376;2023-04-03T08:31:50;21.23;;;13.83;;
6029;SDS011;3043;42.682;23.376;2023-04-03T08:34:16;18.63;;;13.33;;
6029;SDS011;3043;42.682;23.376;2023-04-03T08:36:42;18.63;;;13.50;;
6029;SDS011;3043;42.682;23.376;2023-04-03T08:39:08;27.73;;;14.83;;
6029;SDS011;3043;42.682;23.376;2023-04-03T08:41:35;23.50;;;15.40;;
6029;SDS011;3043;42.682;23.376;2023-04-03T08:44:15;23.80;;;15.73;;
6029;SDS011;3043;42.682;23.376;2023-04-03T08:49:33;23.43;;;15.30;;
6029;SDS011;3043;42.682;23.376;2023-04-03T08:52:15;22.10;;;15.40;;
6029;SDS011;3043;42.682;23.376;2023-04-03T08:54:57;19.70;;;14.70;;
6029;SDS011;3043;42.682;23.376;2023-04-03T08:57:35;26.87;;;17.27;;
6029;SDS011;3043;42.682;23.376;2023-04-03T09:00:06;35.83;;;18.87;;
6029;SDS011;3043;42.682;23.376;2023-04-03T09:02:42;22.23;;;15.10;;
6029;SDS011;3043;42.682;23.376;2023-04-03T09:05:15;25.60;;;15.40;;
6029;SDS011;3043;42.682;23.376;2023-04-03T09:07:44;24.53;;;14.87;;
6029;SDS011;3043;42.682;23.376;2023-04-03T09:10:13;19.67;;;13.20;;
6029;SDS011;3043;42.682;23.376;2023-04-03T09:12:44;22.53;;;14.43;;
6029;SDS011;3043;42.682;23.376;2023-04-03T09:15:23;21.10;;;13.93;;
6029;SDS011;3043;42.682;23.376;2023-04-03T09:18:03;20.23;;;14.93;;
6029;SDS011;3043;42.682;23.376;2023-04-03T09:23:49;24.60;;;15.23;;
6029;SDS011;3043;42.682;23.376;2023-04-03T09:26:17;21.80;;;13.87;;
6029;SDS011;3043;42.682;23.376;2023-04-03T09:28:55;25.40;;;14.67;;
6029;SDS011;3043;42.682;23.376;2023-04-03T09:31:25;18.87;;;13.97;;
6029;SDS011;3043;42.682;23.376;2023-04-03T09:33:55;18.83;;;13.07;;
6029;SDS011;3043;42.682;23.376;2023-04-03T09:36:37;22.43;;;15.83;;
6029;SDS011;3043;42.682;23.376;2023-04-03T09:39:12;24.53;;;14.07;;
6029;SDS011;3043;42.682;23.376;2023-04-03T09:41:42;23.23;;;13.07;;
6029;SDS011;3043;42.682;23.376;2023-04-03T09:44:22;25.23;;;12.53;;
6029;SDS011;3043;42.682;23.376;2023-04-03T09:46:52;22.70;;;12.90;;
6029;SDS011;3043;42.682;23.376;2023-04-03T09:49:18;18.00;;;12.93;;
6029;SDS011;3043;42.682;23.376;2023-04-03T09:51:44;22.10;;;10.60;;
6029;SDS011;3043;42.682;23.376;2023-04-03T09:54:23;19.43;;;9.80;;
6029;SDS011;3043;42.682;23.376;2023-04-03T09:56:56;15.67;;;11.00;;
6029;SDS011;3043;42.682;23.376;2023-04-03T09:59:26;20.33;;;11.33;;
6029;SDS011;3043;42.682;23.376;2023-04-03T10:02:19;17.53;;;11.77;;
6029;SDS011;3043;42.682;23.376;2023-04-03T10:04:58;24.13;;;11.93;;
6029;SDS011;3043;42.682;23.376;2023-04-03T10:10:02;18.87;;;12.00;;
6029;SDS011;3043;42.682;23.376;2023-04-03T10:12:40;18.33;;;11.23;;
6029;SDS011;3043;42.682;23.376;2023-04-03T10:15:11;15.37;;;10.20;;
6029;SDS011;3043;42.682;23.376;2023-04-03T10:25:38;15.90;;;8.57;;
6029;SDS011;3043;42.682;23.376;2023-04-03T10:28:10;15.10;;;9.53;;
6029;SDS011;3043;42.682;23.376;2023-04-03T10:39:12;15.63;;;8.50;;
6029;SDS011;3043;42.682;23.376;2023-04-03T10:49:05;15.90;;;7.50;;
6029;SDS011;3043;42.682;23.376;2023-04-03T10:51:52;14.60;;;7.27;;
6029;SDS011;3043;42.682;23.376;2023-04-03T10:54:38;16.77;;;7.17;;
6029;SDS011;3043;42.682;23.376;2023-04-03T10:57:10;13.10;;;6.83;;
6029;SDS011;3043;42.682;23.376;2023-04-03T11:02:07;12.23;;;5.53;;
6029;SDS011;3043;42.682;23.376;2023-04-03T11:07:39;14.13;;;4.83;;
6029;SDS011;3043;42.682;23.376;2023-04-03T11:10:18;10.37;;;5.30;;
6029;SDS011;3043;42.682;23.376;2023-04-03T11:13:08;9.37;;;4.80;;
6029;SDS011;3043;42.682;23.376;2023-04-03T11:15:38;13.13;;;4.47;;
6029;SDS011;3043;42.682;23.376;2023-04-03T11:18:05;12.13;;;5.00;;
6029;SDS011;3043;42.682;23.376;2023-04-03T11:20:34;7.30;;;4.53;;
6029;SDS011;3043;42.682;23.376;2023-04-03T11:25:31;8.67;;;4.27;;
6029;SDS011;3043;42.682;23.376;2023-04-03T11:28:00;10.80;;;5.50;;
6029;SDS011;3043;42.682;23.376;2023-04-03T11:30:46;8.30;;;4.27;;
6029;SDS011;3043;42.682;23.376;2023-04-03T11:35:45;8.13;;;4.40;;
6029;SDS011;3043;42.682;23.376;2023-04-03T11:38:22;7.27;;;4.20;;
6029;SDS011;3043;42.682;23.376;2023-04-03T11:40:52;7.83;;;4.70;;
6029;SDS011;3043;42.682;23.376;2023-04-03T11:43:21;6.77;;;4.33;;
6029;SDS011;3043;42.682;23.376;2023-04-03T11:50:53;6.73;;;4.20;;
6029;SDS011;3043;42.682;23.376;2023-04-03T11:53:39;7.63;;;4.80;;
6029;SDS011;3043;42.682;23.376;2023-04-03T12:01:43;6.93;;;4.30;;
6029;SDS011;3043;42.682;23.376;2023-04-03T12:04:13;6.50;;;4.23;;
6029;SDS011;3043;42.682;23.376;2023-04-03T12:09:22;7.43;;;4.37;;
6029;SDS011;3043;42.682;23.376;2023-04-03T12:12:00;8.13;;;4.20;;
6029;SDS011;3043;42.682;23.376;2023-04-03T12:14:46;5.90;;;3.53;;
6029;SDS011;3043;42.682;23.376;2023-04-03T12:17:18;7.07;;;4.53;;
6029;SDS011;3043;42.682;23.376;2023-04-03T12:19:49;7.27;;;4.13;;
6029;SDS011;3043;42.682;23.376;2023-04-03T12:22:16;8.93;;;5.60;;
6029;SDS011;3043;42.682;23.376;2023-04-03T12:24:46;8.13;;;4.87;;
6029;SDS011;3043;42.682;23.376;2023-04-03T12:27:38;8.40;;;5.90;;
6029;SDS011;3043;42.682;23.376;2023-04-03T12:30:12;8.57;;;5.13;;
6029;SDS011;3043;42.682;23.376;2023-04-03T12:32:44;10.90;;;6.63;;
6029;SDS011;3043;42.682;23.376;2023-04-03T12:46:44;9.33;;;5.23;;
6029;SDS011;3043;42.682;23.376;2023-04-03T12:51:59;8.50;;;6.03;;
6029;SDS011;3043;42.682;23.376;2023-04-03T12:54:40;13.07;;;8.37;;
6029;SDS011;3043;42.682;23.376;2023-04-03T12:57:10;15.63;;;9.20;;
6029;SDS011;3043;42.682;23.376;2023-04-03T12:59:35;15.50;;;9.27;;
6029;SDS011;3043;42.682;23.376;2023-04-03T13:02:02;12.67;;;8.20;;
6029;SDS011;3043;42.682;23.376;2023-04-03T13:04:28;9.60;;;6.27;;
6029;SDS011;3043;42.682;23.376;2023-04-03T13:06:55;10.57;;;6.73;;
6029;SDS011;3043;42.682;23.376;2023-04-03T13:09:28;17.73;;;9.10;;
6029;SDS011;3043;42.682;23.376;2023-04-03T13:14:26;12.50;;;7.03;;
6029;SDS011;3043;42.682;23.376;2023-04-03T13:19:26;11.00;;;7.53;;
6029;SDS011;3043;42.682;23.376;2023-04-03T13:22:03;11.43;;;6.70;;
6029;SDS011;3043;42.682;23.376;2023-04-03T13:24:33;8.33;;;6.47;;
6029;SDS011;3043;42.682;23.376;2023-04-03T13:27:02;13.13;;;7.53;;
6029;SDS011;3043;42.682;23.376;2023-04-03T13:29:33;14.77;;;7.63;;
6029;SDS011;3043;42.682;23.376;2023-04-03T13:32:03;11.40;;;8.47;;
6029;SDS011;3043;42.682;23.376;2023-04-03T13:34:35;12.90;;;8.53;;
6029;SDS011;3043;42.682;23.376;2023-04-03T13:37:03;10.20;;;7.50;;
6029;SDS011;3043;42.682;23.376;2023-04-03T13:41:56;10.10;;;6.50;;
6029;SDS011;3043;42.682;23.376;2023-04-03T13:44:26;11.47;;;7.90;;
6029;SDS011;3043;42.682;23.376;2023-04-03T13:46:59;13.43;;;9.17;;
6029;SDS011;3043;42.682;23.376;2023-04-03T13:49:59;11.47;;;8.07;;
6029;SDS011;3043;42.682;23.376;2023-04-03T13:52:42;12.43;;;9.03;;
6029;SDS011;3043;42.682;23.376;2023-04-03T13:55:23;11.90;;;8.77;;
6029;SDS011;3043;42.682;23.376;2023-04-03T13:57:56;13.00;;;8.70;;
6029;SDS011;3043;42.682;23.376;2023-04-03T14:05:50;13.57;;;9.60;;
6029;SDS011;3043;42.682;23.376;2023-04-03T14:08:16;13.20;;;9.97;;
6029;SDS011;3043;42.682;23.376;2023-04-03T14:10:43;11.93;;;9.30;;
6029;SDS011;3043;42.682;23.376;2023-04-03T14:13:11;12.23;;;8.77;;
6029;SDS011;3043;42.682;23.376;2023-04-03T14:15:41;9.80;;;7.23;;
6029;SDS011;3043;42.682;23.376;2023-04-03T14:18:10;12.60;;;7.33;;
6029;SDS011;3043;42.682;23.376;2023-04-03T14:20:37;9.57;;;7.23;;
6029;SDS011;3043;42.682;23.376;2023-04-03T14:23:03;12.40;;;7.73;;
6029;SDS011;3043;42.682;23.376;2023-04-03T14:25:29;10.73;;;6.70;;
6029;SDS011;3043;42.682;23.376;2023-04-03T14:27:54;9.67;;;7.17;;
6029;SDS011;3043;42.682;23.376;2023-04-03T14:32:47;14.33;;;10.40;;
6029;SDS011;3043;42.682;23.376;2023-04-03T14:35:14;11.63;;;8.37;;
6029;SDS011;3043;42.682;23.376;2023-04-03T14:37:40;10.33;;;7.43;;
6029;SDS011;3043;42.682;23.376;2023-04-03T14:40:07;10.17;;;6.93;;
6029;SDS011;3043;42.682;23.376;2023-04-03T14:42:35;11.27;;;7.27;;
6029;SDS011;3043;42.682;23.376;2023-04-03T14:45:02;13.07;;;8.80;;
6029;SDS011;3043;42.682;23.376;2023-04-03T14:47:30;11.87;;;7.87;;
6029;SDS011;3043;42.682;23.376;2023-04-03T14:49:56;9.93;;;6.90;;
6029;SDS011;3043;42.682;23.376;2023-04-03T14:52:23;13.40;;;9.40;;
6029;SDS011;3043;42.682;23.376;2023-04-03T14:55:00;15.87;;;9.33;;
6029;SDS011;3043;42.682;23.376;2023-04-03T14:57:27;9.23;;;6.47;;
6029;SDS011;3043;42.682;23.376;2023-04-03T14:59:54;8.53;;;5.10;;
6029;SDS011;3043;42.682;23.376;2023-04-03T15:02:32;7.53;;;5.10;;
6029;SDS011;3043;42.682;23.376;2023-04-03T15:04:59;10.97;;;6.00;;
6029;SDS011;3043;42.682;23.376;2023-04-03T15:07:29;10.27;;;6.97;;
6029;SDS011;3043;42.682;23.376;2023-04-03T15:09:57;7.10;;;5.07;;
6029;SDS011;3043;42.682;23.376;2023-04-03T15:12:26;8.77;;;5.80;;
6029;SDS011;3043;42.682;23.376;2023-04-03T15:14:51;8.00;;;5.10;;
6029;SDS011;3043;42.682;23.376;2023-04-03T15:17:18;8.40;;;5.10;;
6029;SDS011;3043;42.682;23.376;2023-04-03T15:19:46;7.73;;;4.80;;
6029;SDS011;3043;42.682;23.376;2023-04-03T15:22:15;9.50;;;5.43;;
6029;SDS011;3043;42.682;23.376;2023-04-03T15:24:43;9.83;;;5.67;;
6029;SDS011;3043;42.682;23.376;2023-04-03T15:27:09;17.63;;;11.93;;
6029;SDS011;3043;42.682;23.376;2023-04-03T15:29:36;7.83;;;5.53;;
6029;SDS011;3043;42.682;23.376;2023-04-03T15:32:02;12.73;;;8.00;;
6029;SDS011;3043;42.682;23.376;2023-04-03T15:34:28;11.97;;;7.07;;
6029;SDS011;3043;42.682;23.376;2023-04-03T15:36:54;8.07;;;5.40;;
6029;SDS011;3043;42.682;23.376;2023-04-03T15:39:19;8.90;;;6.57;;
6029;SDS011;3043;42.682;23.376;2023-04-03T15:41:45;9.80;;;6.90;;
6029;SDS011;3043;42.682;23.376;2023-04-03T15:44:11;11.53;;;7.90;;
6029;SDS011;3043;42.682;23.376;2023-04-03T15:46:37;10.10;;;6.83;;
6029;SDS011;3043;42.682;23.376;2023-04-03T15:49:03;18.60;;;12.07;;
6029;SDS011;3043;42.682;23.376;2023-04-03T15:51:30;15.07;;;9.90;;
6029;SDS011;3043;42.682;23.376;2023-04-03T15:53:55;17.13;;;11.93;;
6029;SDS011;3043;42.682;23.376;2023-04-03T15:56:21;17.47;;;13.50;;
6029;SDS011;3043;42.682;23.376;2023-04-03T15:58:46;15.37;;;10.90;;
6029;SDS011;3043;42.682;23.376;2023-04-03T16:01:12;12.30;;;7.70;;
6029;SDS011;3043;42.682;23.376;2023-04-03T16:03:39;11.60;;;6.90;;
6029;SDS011;3043;42.682;23.376;2023-04-03T16:06:16;10.67;;;7.10;;
6029;SDS011;3043;42.682;23.376;2023-04-03T16:08:43;11.27;;;7.00;;
6029;SDS011;3043;42.682;23.376;2023-04-03T16:11:10;13.17;;;8.97;;
6029;SDS011;3043;42.682;23.376;2023-04-03T16:13:36;11.80;;;8.27;;
6029;SDS011;3043;42.682;23.376;2023-04-03T16:16:02;13.13;;;9.47;;
6029;SDS011;3043;42.682;23.376;2023-04-03T16:18:28;18.93;;;14.63;;
6029;SDS011;3043;42.682;23.376;2023-04-03T16:20:54;25.97;;;17.83;;